Time;durP1;ratioP1;P1;durP2;ratioP2;P2;SDS_P1;SDS_P2;PMS_P1;PMS_P2;Temp;Humidity;BMP_temperature;BMP_pressure;BME280_temperature;BME280_humidity;BME280_pressure;Samples;Min_cycle;Max_cycle;Signal;HPM_P1;HPM_P2
2023/05/03 00:01:19;;;;;;;22.20;8.77;;;;;;;;;;5071954;28;20020;-66
2023/05/03 00:03:44;;;;;;;27.30;9.37;;;;;;;;;;5069900;28;20044;-66
2023/05/03 00:06:13;;;;;;;24.77;9.43;;;;;;;;;;5071739;28;20032;-65
2023/05/03 00:08:40;;;;;;;22.77;9.80;;;;;;;;;;5072376;28;20405;-65
2023/05/03 00:11:06;;;;;;;28.57;9.10;;;;;;;;;;5072658;28;20036;-65
2023/05/03 00:13:31;;;;;;;30.80;9.90;;;;;;;;;;5072172;28;20033;-65
2023/05/03 00:15:56;;;;;;;25.97;9.67;;;;;;;;;;5071454;28;20465;-65
2023/05/03 00:18:22;;;;;;;23.23;9.70;;;;;;;;;;5071886;28;20145;-65
2023/05/03 00:20:48;;;;;;;24.27;9.63;;;;;;;;;;5071980;28;20381;-66
2023/05/03 00:23:13;;;;;;;28.30;9.67;;;;;;;;;;5068738;28;20017;-65
2023/05/03 00:25:38;;;;;;;23.87;9.57;;;;;;;;;;5072119;28;20025;-66
2023/05/03 00:28:04;;;;;;;28.33;10.33;;;;;;;;;;5072087;28;20039;-66
2023/05/03 00:30:29;;;;;;;32.40;9.73;;;;;;;;;;5072576;28;20059;-65
2023/05/03 00:32:54;;;;;;;24.47;9.63;;;;;;;;;;5071803;28;20472;-66
2023/05/03 00:35:20;;;;;;;25.80;10.10;;;;;;;;;;5071946;28;20119;-65
2023/05/03 00:37:45;;;;;;;27.83;9.80;;;;;;;;;;5071755;28;20032;-64
2023/05/03 00:40:11;;;;;;;27.20;9.20;;;;;;;;;;5071633;28;20016;-64
2023/05/03 00:42:36;;;;;;;21.97;9.37;;;;;;;;;;5071650;28;20373;-64
2023/05/03 00:45:03;;;;;;;27.27;9.90;;;;;;;;;;5072282;28;20043;-65
2023/05/03 00:47:29;;;;;;;29.60;10.53;;;;;;;;;;5070852;28;20036;-65
2023/05/03 00:49:55;;;;;;;26.07;9.87;;;;;;;;;;5070957;28;20460;-66
2023/05/03 00:52:20;;;;;;;29.30;10.30;;;;;;;;;;5071162;28;20511;-64
2023/05/03 00:54:46;;;;;;;29.27;10.70;;;;;;;;;;5071498;28;20052;-66
2023/05/03 00:57:11;;;;;;;30.10;11.07;;;;;;;;;;5071572;28;20531;-65
2023/05/03 00:59:36;;;;;;;31.73;11.37;;;;;;;;;;5071712;28;20017;-66
2023/05/03 01:02:03;;;;;;;32.90;11.60;;;;;;;;;;5069011;28;20032;-65
2023/05/03 01:04:28;;;;;;;32.63;12.10;;;;;;;;;;5069953;22;20140;-70
2023/05/03 01:07:00;;;;;;;36.30;12.40;;;;;;;;;;5050130;28;20100;-70
2023/05/03 01:09:41;;;;;;;38.25;12.32;;;;;;;;;;5052400;28;20118;-70
2023/05/03 01:12:30;;;;;;;46.22;14.10;;;;;;;;;;5056084;28;20544;-70
2023/05/03 01:15:14;;;;;;;37.27;11.63;;;;;;;;;;5032489;28;20133;-70
2023/05/03 01:17:47;;;;;;;42.63;12.07;;;;;;;;;;5055871;28;20028;-70
2023/05/03 01:20:13;;;;;;;37.07;12.27;;;;;;;;;;5065178;28;20360;-71
2023/05/03 01:22:43;;;;;;;31.87;11.87;;;;;;;;;;5063336;28;20025;-70
2023/05/03 01:25:09;;;;;;;28.43;11.93;;;;;;;;;;5058583;28;20032;-70
2023/05/03 01:27:35;;;;;;;32.77;11.93;;;;;;;;;;5051542;28;20126;-70
2023/05/03 01:30:02;;;;;;;37.67;12.07;;;;;;;;;;5055049;28;20115;-70
2023/05/03 01:32:47;;;;;;;37.77;12.50;;;;;;;;;;5052304;28;20583;-70
2023/05/03 01:35:38;;;;;;;37.87;13.83;;;;;;;;;;4997678;28;20458;-71
2023/05/03 01:38:04;;;;;;;36.15;14.07;;;;;;;;;;4997259;28;20409;-70
2023/05/03 01:40:30;;;;;;;39.80;14.93;;;;;;;;;;5016700;28;20029;-70
2023/05/03 01:42:55;;;;;;;43.93;16.30;;;;;;;;;;5005508;28;20436;-70
2023/05/03 01:45:21;;;;;;;41.77;15.57;;;;;;;;;;5024791;28;20053;-70
2023/05/03 01:47:46;;;;;;;36.87;14.47;;;;;;;;;;5011423;28;20025;-71
2023/05/03 01:50:12;;;;;;;39.07;14.80;;;;;;;;;;5018086;28;20121;-70
2023/05/03 01:52:37;;;;;;;34.07;14.67;;;;;;;;;;5014134;28;20030;-70
2023/05/03 01:55:02;;;;;;;36.33;14.67;;;;;;;;;;5010703;28;20196;-71
2023/05/03 01:57:28;;;;;;;40.07;15.53;;;;;;;;;;5010580;28;20037;-71
2023/05/03 01:59:53;;;;;;;44.57;17.57;;;;;;;;;;5014004;28;20058;-71
2023/05/03 02:02:18;;;;;;;44.77;16.93;;;;;;;;;;5012299;28;20501;-71
2023/05/03 02:04:44;;;;;;;41.13;16.70;;;;;;;;;;5013416;28;20120;-70
2023/05/03 02:07:09;;;;;;;43.43;16.80;;;;;;;;;;5013775;28;20103;-71
2023/05/03 02:09:34;;;;;;;44.43;18.27;;;;;;;;;;5010521;28;20030;-71
2023/05/03 02:11:59;;;;;;;52.77;20.17;;;;;;;;;;5022838;28;20029;-71
2023/05/03 02:14:25;;;;;;;48.80;18.43;;;;;;;;;;5041891;28;20464;-70
2023/05/03 02:16:50;;;;;;;46.23;19.83;;;;;;;;;;5055200;28;20057;-71
2023/05/03 02:19:15;;;;;;;54.97;20.00;;;;;;;;;;5055442;28;20013;-70
2023/05/03 02:21:41;;;;;;;49.87;18.80;;;;;;;;;;5054813;28;20096;-70
2023/05/03 02:24:06;;;;;;;48.43;20.77;;;;;;;;;;5056579;28;20025;-71
2023/05/03 02:26:31;;;;;;;52.93;20.17;;;;;;;;;;5055380;28;20576;-71
2023/05/03 02:28:57;;;;;;;52.27;22.00;;;;;;;;;;5054511;28;20040;-71
2023/05/03 02:31:22;;;;;;;58.90;22.83;;;;;;;;;;5056033;28;20469;-71
2023/05/03 02:33:48;;;;;;;55.70;23.60;;;;;;;;;;5055766;28;20021;-71
2023/05/03 02:36:13;;;;;;;58.63;22.80;;;;;;;;;;5055979;28;20025;-71
2023/05/03 02:38:38;;;;;;;56.77;23.00;;;;;;;;;;5054188;28;20013;-71
2023/05/03 02:41:04;;;;;;;51.97;22.20;;;;;;;;;;5055638;28;20029;-71
2023/05/03 02:43:29;;;;;;;52.50;21.87;;;;;;;;;;5055831;28;20017;-71
2023/05/03 02:45:54;;;;;;;57.83;23.50;;;;;;;;;;5055498;28;20381;-71
2023/05/03 02:48:19;;;;;;;65.33;26.37;;;;;;;;;;5055298;28;20496;-71
2023/05/03 02:50:45;;;;;;;57.47;25.07;;;;;;;;;;5055317;28;20013;-71
2023/05/03 02:53:10;;;;;;;62.17;26.13;;;;;;;;;;5053965;28;20013;-71
2023/05/03 02:55:35;;;;;;;64.63;26.33;;;;;;;;;;5055647;28;20024;-71
2023/05/03 02:58:01;;;;;;;59.13;24.33;;;;;;;;;;5055019;28;20108;-68
2023/05/03 03:00:26;;;;;;;62.47;25.50;;;;;;;;;;5051991;28;20029;-67
2023/05/03 03:02:51;;;;;;;72.07;25.80;;;;;;;;;;5053030;28;20557;-68
2023/05/03 03:05:17;;;;;;;63.83;25.90;;;;;;;;;;5053458;28;20137;-67
2023/05/03 03:07:42;;;;;;;67.77;27.33;;;;;;;;;;5053610;28;20079;-69
2023/05/03 03:10:08;;;;;;;62.90;25.40;;;;;;;;;;5054555;28;20350;-67
2023/05/03 03:12:36;;;;;;;59.53;25.17;;;;;;;;;;5054189;28;20389;-67
2023/05/03 03:15:02;;;;;;;65.57;26.80;;;;;;;;;;5051593;28;20028;-69
2023/05/03 03:17:28;;;;;;;71.33;27.40;;;;;;;;;;5053336;28;20037;-68
2023/05/03 03:19:53;;;;;;;72.57;28.20;;;;;;;;;;5053518;28;20465;-67
2023/05/03 03:22:18;;;;;;;64.17;27.83;;;;;;;;;;5054440;28;20376;-67
2023/05/03 03:24:44;;;;;;;72.67;28.63;;;;;;;;;;5052803;28;20017;-67
2023/05/03 03:27:09;;;;;;;66.40;27.67;;;;;;;;;;5054652;28;20024;-68
2023/05/03 03:29:35;;;;;;;64.37;26.77;;;;;;;;;;5054248;28;20389;-67
2023/05/03 03:32:00;;;;;;;68.57;26.70;;;;;;;;;;5054615;28;20028;-67
2023/05/03 03:34:25;;;;;;;73.30;26.27;;;;;;;;;;5053759;28;20109;-67
2023/05/03 03:36:51;;;;;;;68.00;27.93;;;;;;;;;;5053151;28;20025;-67
2023/05/03 03:39:16;;;;;;;64.10;27.47;;;;;;;;;;5050601;28;20024;-68
2023/05/03 03:41:41;;;;;;;72.93;28.57;;;;;;;;;;5054565;28;20013;-67
2023/05/03 03:44:07;;;;;;;73.17;28.40;;;;;;;;;;5053817;28;20059;-68
2023/05/03 03:46:32;;;;;;;67.00;27.17;;;;;;;;;;5053421;28;20024;-67
2023/05/03 03:48:58;;;;;;;74.53;29.90;;;;;;;;;;5050016;28;20042;-67
2023/05/03 03:51:23;;;;;;;70.77;30.73;;;;;;;;;;5053525;28;20075;-68
2023/05/03 03:53:48;;;;;;;71.37;31.73;;;;;;;;;;5050971;28;20021;-67
2023/05/03 03:56:14;;;;;;;80.40;31.53;;;;;;;;;;5052793;28;20447;-67
2023/05/03 03:58:39;;;;;;;72.57;31.00;;;;;;;;;;5053328;28;20031;-67
2023/05/03 04:01:05;;;;;;;73.07;31.37;;;;;;;;;;5051247;28;20017;-68
2023/05/03 04:03:30;;;;;;;85.53;35.17;;;;;;;;;;5050070;28;20116;-67
2023/05/03 04:05:55;;;;;;;87.63;36.53;;;;;;;;;;5050756;28;20017;-67
2023/05/03 04:08:21;;;;;;;75.93;32.53;;;;;;;;;;5049182;28;20025;-67
2023/05/03 04:10:46;;;;;;;81.33;33.37;;;;;;;;;;5053830;28;20036;-69
2023/05/03 04:13:11;;;;;;;75.77;33.53;;;;;;;;;;5052782;28;20021;-69
2023/05/03 04:15:37;;;;;;;81.73;32.03;;;;;;;;;;5052043;28;20422;-68
2023/05/03 04:18:02;;;;;;;90.03;36.63;;;;;;;;;;5052744;28;20032;-68
2023/05/03 04:20:28;;;;;;;82.50;33.90;;;;;;;;;;5049167;28;20020;-69
2023/05/03 04:22:53;;;;;;;72.43;31.67;;;;;;;;;;5063209;28;20477;-68
2023/05/03 04:25:18;;;;;;;67.27;31.63;;;;;;;;;;5052525;28;20025;-68
2023/05/03 04:27:44;;;;;;;73.90;33.50;;;;;;;;;;5053764;28;20081;-68
2023/05/03 04:30:10;;;;;;;71.47;32.70;;;;;;;;;;5053505;28;20021;-68
2023/05/03 04:32:36;;;;;;;74.47;31.67;;;;;;;;;;5052858;28;20032;-68
2023/05/03 04:35:08;;;;;;;66.67;29.97;;;;;;;;;;5052163;28;20017;-68
2023/05/03 04:37:34;;;;;;;58.37;27.87;;;;;;;;;;5052792;28;20029;-68
2023/05/03 04:39:59;;;;;;;47.57;23.27;;;;;;;;;;5050423;28;20021;-67
2023/05/03 04:42:24;;;;;;;53.60;24.40;;;;;;;;;;5049255;28;20519;-68
2023/05/03 04:44:49;;;;;;;50.97;22.80;;;;;;;;;;5051948;28;20017;-67
2023/05/03 04:47:15;;;;;;;56.43;25.93;;;;;;;;;;5046714;28;20031;-67
2023/05/03 04:49:40;;;;;;;51.43;24.70;;;;;;;;;;5048063;28;20104;-67
2023/05/03 04:52:05;;;;;;;51.50;24.17;;;;;;;;;;5046418;28;20109;-67
2023/05/03 04:54:31;;;;;;;46.53;23.00;;;;;;;;;;5051489;28;20100;-68
2023/05/03 04:56:57;;;;;;;43.23;21.00;;;;;;;;;;5053560;28;20548;-67
2023/05/03 04:59:22;;;;;;;47.80;22.17;;;;;;;;;;5051981;28;20029;-67
2023/05/03 05:01:48;;;;;;;40.77;20.57;;;;;;;;;;5046762;28;20018;-68
2023/05/03 05:04:13;;;;;;;34.87;18.03;;;;;;;;;;5032133;28;20445;-67
2023/05/03 05:06:38;;;;;;;31.23;15.60;;;;;;;;;;5050723;28;20025;-67
2023/05/03 05:09:06;;;;;;;26.03;13.50;;;;;;;;;;5053330;28;20024;-67
2023/05/03 05:11:31;;;;;;;28.00;12.27;;;;;;;;;;5051162;28;20535;-67
2023/05/03 05:13:56;;;;;;;22.10;10.30;;;;;;;;;;5052829;28;20033;-67
2023/05/03 05:16:22;;;;;;;24.40;9.40;;;;;;;;;;5049492;28;20035;-68
2023/05/03 05:18:47;;;;;;;21.10;9.20;;;;;;;;;;5051719;28;20075;-68
2023/05/03 05:21:13;;;;;;;20.10;9.33;;;;;;;;;;5053233;28;20024;-67
2023/05/03 05:23:38;;;;;;;20.80;8.53;;;;;;;;;;5052259;28;20021;-68
2023/05/03 05:26:04;;;;;;;24.20;8.00;;;;;;;;;;5050932;28;20025;-68
2023/05/03 05:28:29;;;;;;;19.13;8.10;;;;;;;;;;5053141;28;20408;-67
2023/05/03 05:30:54;;;;;;;17.00;7.77;;;;;;;;;;5049857;28;20055;-68
2023/05/03 05:33:20;;;;;;;19.70;7.63;;;;;;;;;;5051680;28;20040;-67
2023/05/03 05:35:48;;;;;;;17.67;7.10;;;;;;;;;;5052989;28;20066;-68
2023/05/03 05:38:16;;;;;;;19.57;7.63;;;;;;;;;;5053067;28;20351;-67
2023/05/03 05:40:41;;;;;;;14.97;7.53;;;;;;;;;;5051038;28;20028;-67
2023/05/03 05:43:07;;;;;;;16.90;7.47;;;;;;;;;;5053102;28;20024;-67
2023/05/03 05:45:33;;;;;;;16.87;8.73;;;;;;;;;;5052589;28;20013;-68
2023/05/03 05:47:58;;;;;;;11.80;6.00;;;;;;;;;;5052636;28;20021;-68
2023/05/03 05:50:23;;;;;;;15.30;6.80;;;;;;;;;;5053123;28;20028;-68
2023/05/03 05:52:50;;;;;;;11.10;6.50;;;;;;;;;;5051048;28;20461;-68
2023/05/03 05:55:15;;;;;;;16.40;7.27;;;;;;;;;;5050423;28;20071;-67
2023/05/03 05:57:41;;;;;;;12.30;6.50;;;;;;;;;;5052563;28;20021;-67
2023/05/03 06:00:13;;;;;;;15.33;6.47;;;;;;;;;;5050682;28;20029;-67
2023/05/03 06:02:38;;;;;;;16.90;7.00;;;;;;;;;;5048833;28;20021;-68
2023/05/03 06:05:05;;;;;;;12.93;6.40;;;;;;;;;;5045263;28;20064;-70
2023/05/03 06:07:30;;;;;;;15.70;6.20;;;;;;;;;;5043069;28;20043;-67
2023/05/03 06:09:55;;;;;;;12.23;4.67;;;;;;;;;;5051077;28;20059;-67
2023/05/03 06:12:20;;;;;;;13.50;4.83;;;;;;;;;;5049738;28;20013;-67
2023/05/03 06:14:46;;;;;;;10.10;4.40;;;;;;;;;;5052591;28;20424;-67
2023/05/03 06:17:11;;;;;;;8.65;4.30;;;;;;;;;;5045553;28;20029;-67
2023/05/03 06:19:37;;;;;;;13.02;4.15;;;;;;;;;;5044782;28;20434;-68
2023/05/03 06:22:02;;;;;;;10.98;3.85;;;;;;;;;;5048490;28;20029;-68
2023/05/03 06:24:30;;;;;;;11.38;3.60;;;;;;;;;;5049548;28;20127;-68
2023/05/03 06:26:56;;;;;;;9.00;3.55;;;;;;;;;;5046275;28;20044;-68
2023/05/03 06:29:21;;;;;;;8.80;3.50;;;;;;;;;;5045969;28;20534;-68
2023/05/03 06:31:46;;;;;;;13.30;3.50;;;;;;;;;;5043426;28;20025;-68
2023/05/03 06:34:12;;;;;;;8.30;3.65;;;;;;;;;;5048296;28;20373;-68
2023/05/03 06:36:37;;;;;;;8.85;3.05;;;;;;;;;;5052198;28;20591;-68
2023/05/03 06:39:03;;;;;;;10.98;3.60;;;;;;;;;;5050475;28;20135;-68
2023/05/03 06:41:29;;;;;;;9.07;3.10;;;;;;;;;;5038686;28;20058;-68
2023/05/03 06:43:54;;;;;;;9.57;3.20;;;;;;;;;;5050768;28;20032;-67
2023/05/03 06:46:19;;;;;;;5.82;2.55;;;;;;;;;;5055653;28;20028;-68
2023/05/03 06:48:45;;;;;;;6.40;2.58;;;;;;;;;;5055926;28;20024;-68
2023/05/03 06:51:10;;;;;;;7.30;2.75;;;;;;;;;;5055884;28;20066;-68
2023/05/03 06:53:35;;;;;;;6.45;1.20;;;;;;;;;;5055319;28;20350;-68
2023/05/03 06:56:02;;;;;;;3.50;1.00;;;;;;;;;;5054120;28;20027;-68
2023/05/03 06:58:27;;;;;;;4.85;1.48;;;;;;;;;;5055679;28;20484;-68
2023/05/03 07:00:53;;;;;;;5.18;1.80;;;;;;;;;;5055721;28;20032;-68
2023/05/03 07:03:18;;;;;;;4.95;1.30;;;;;;;;;;5053702;28;20045;-69
2023/05/03 07:05:43;;;;;;;4.97;1.50;;;;;;;;;;5054501;28;20104;-68
2023/05/03 07:08:09;;;;;;;6.95;1.70;;;;;;;;;;5055173;28;20473;-67
2023/05/03 07:10:35;;;;;;;5.00;1.63;;;;;;;;;;5054492;28;20478;-68
2023/05/03 07:13:00;;;;;;;5.93;1.90;;;;;;;;;;5054791;28;20024;-68
2023/05/03 07:15:25;;;;;;;7.32;1.80;;;;;;;;;;5055250;28;20377;-68
2023/05/03 07:17:51;;;;;;;6.60;1.70;;;;;;;;;;5053851;28;20504;-68
2023/05/03 07:20:16;;;;;;;6.82;2.25;;;;;;;;;;5055526;28;20594;-68
2023/05/03 07:22:41;;;;;;;6.10;1.50;;;;;;;;;;5055286;28;20495;-68
2023/05/03 07:25:07;;;;;;;6.20;1.60;;;;;;;;;;5054158;28;20092;-67
2023/05/03 07:27:33;;;;;;;6.97;1.60;;;;;;;;;;5051701;28;20025;-68
2023/05/03 07:29:59;;;;;;;5.18;1.88;;;;;;;;;;5054925;28;20021;-68
2023/05/03 07:32:24;;;;;;;5.32;1.77;;;;;;;;;;5054919;28;20076;-67
2023/05/03 07:34:49;;;;;;;6.13;1.83;;;;;;;;;;5054621;28;20021;-67
2023/05/03 07:37:15;;;;;;;4.55;1.73;;;;;;;;;;5053553;28;20029;-68
2023/05/03 07:39:40;;;;;;;5.72;2.20;;;;;;;;;;5054712;28;20032;-67
2023/05/03 07:42:06;;;;;;;6.35;1.88;;;;;;;;;;5052655;28;20017;-67
2023/05/03 07:44:31;;;;;;;4.75;1.65;;;;;;;;;;5054946;28;20469;-67
2023/05/03 07:46:57;;;;;;;5.57;1.75;;;;;;;;;;5054464;28;20033;-68
2023/05/03 07:49:22;;;;;;;6.32;2.20;;;;;;;;;;5053917;28;20060;-67
2023/05/03 07:51:47;;;;;;;6.88;2.00;;;;;;;;;;5054119;28;20480;-68
2023/05/03 07:54:12;;;;;;;8.57;2.17;;;;;;;;;;5054132;28;20082;-68
2023/05/03 07:56:38;;;;;;;10.77;2.30;;;;;;;;;;5052117;28;20028;-67
2023/05/03 07:59:03;;;;;;;9.40;2.50;;;;;;;;;;5054765;28;20461;-68
2023/05/03 08:01:28;;;;;;;7.28;2.50;;;;;;;;;;5052721;28;20028;-68
2023/05/03 08:03:54;;;;;;;6.87;2.30;;;;;;;;;;5054190;28;20037;-67
2023/05/03 08:06:19;;;;;;;7.40;2.33;;;;;;;;;;5054612;28;20017;-68
2023/05/03 08:08:44;;;;;;;7.60;2.20;;;;;;;;;;5054254;28;20480;-68
2023/05/03 08:11:10;;;;;;;7.20;2.55;;;;;;;;;;5053595;28;20045;-68
2023/05/03 08:13:36;;;;;;;6.03;2.35;;;;;;;;;;5054155;28;20017;-68
2023/05/03 08:16:01;;;;;;;7.30;2.42;;;;;;;;;;5054476;28;20025;-68
2023/05/03 08:18:27;;;;;;;4.72;1.98;;;;;;;;;;5054313;28;20036;-69
2023/05/03 08:20:52;;;;;;;5.38;2.45;;;;;;;;;;5054101;28;20013;-68
2023/05/03 08:23:18;;;;;;;6.57;2.38;;;;;;;;;;5053182;28;20024;-68
2023/05/03 08:25:44;;;;;;;8.40;2.00;;;;;;;;;;5051741;28;20025;-68
2023/05/03 08:28:09;;;;;;;7.40;2.20;;;;;;;;;;5054151;28;20028;-68
2023/05/03 08:30:35;;;;;;;8.77;3.03;;;;;;;;;;5053219;28;20029;-68
2023/05/03 08:33:00;;;;;;;5.60;2.70;;;;;;;;;;5053742;28;20369;-69
2023/05/03 08:35:26;;;;;;;6.78;2.90;;;;;;;;;;5052671;28;20184;-68
2023/05/03 08:37:52;;;;;;;7.97;2.90;;;;;;;;;;5053023;28;20100;-68
2023/05/03 08:40:21;;;;;;;6.55;2.90;;;;;;;;;;5051763;28;20017;-69
2023/05/03 08:42:46;;;;;;;9.82;2.50;;;;;;;;;;5053663;28;20024;-68
2023/05/03 08:45:14;;;;;;;8.65;2.42;;;;;;;;;;5052875;28;20008;-69
2023/05/03 08:47:40;;;;;;;10.63;2.70;;;;;;;;;;5053323;28;20013;-69
2023/05/03 08:50:07;;;;;;;5.60;1.85;;;;;;;;;;5053186;28;20025;-69
2023/05/03 08:52:33;;;;;;;5.15;1.90;;;;;;;;;;5053456;28;20445;-69
2023/05/03 08:54:58;;;;;;;6.97;2.25;;;;;;;;;;5052851;28;20032;-69
2023/05/03 08:57:24;;;;;;;5.95;2.20;;;;;;;;;;5052426;28;20372;-69
2023/05/03 08:59:52;;;;;;;7.95;2.50;;;;;;;;;;5053384;28;20016;-69
2023/05/03 09:02:18;;;;;;;7.15;2.40;;;;;;;;;;5053205;28;20021;-68
2023/05/03 09:04:43;;;;;;;6.45;2.20;;;;;;;;;;5053050;28;20044;-68
2023/05/03 09:07:09;;;;;;;3.88;2.10;;;;;;;;;;5051569;28;20025;-69
2023/05/03 09:09:35;;;;;;;6.28;2.15;;;;;;;;;;5053504;28;20423;-68
2023/05/03 09:12:00;;;;;;;7.90;2.38;;;;;;;;;;5051046;28;20035;-69
2023/05/03 09:14:26;;;;;;;4.30;1.98;;;;;;;;;;5050686;28;20029;-69
2023/05/03 09:16:51;;;;;;;9.18;2.60;;;;;;;;;;5052386;28;20103;-68
2023/05/03 09:19:16;;;;;;;7.50;2.40;;;;;;;;;;5050423;28;20028;-70
2023/05/03 09:21:43;;;;;;;8.70;2.47;;;;;;;;;;5053298;28;20044;-69
2023/05/03 09:24:12;;;;;;;7.85;2.22;;;;;;;;;;5053378;28;20021;-68
2023/05/03 09:26:39;;;;;;;10.38;2.30;;;;;;;;;;5051117;28;20016;-68
2023/05/03 09:29:05;;;;;;;6.70;2.40;;;;;;;;;;5052977;28;20415;-70
2023/05/03 09:31:31;;;;;;;5.47;2.20;;;;;;;;;;5052754;28;20025;-69
2023/05/03 09:33:56;;;;;;;5.55;2.00;;;;;;;;;;5052141;28;20029;-69
2023/05/03 09:36:22;;;;;;;5.88;2.15;;;;;;;;;;5053096;28;20088;-69
2023/05/03 09:38:49;;;;;;;6.50;2.08;;;;;;;;;;5052738;28;20017;-70
2023/05/03 09:41:15;;;;;;;6.75;2.10;;;;;;;;;;5050858;28;20012;-69
2023/05/03 09:43:50;;;;;;;6.22;2.13;;;;;;;;;;5053065;28;20071;-69
2023/05/03 09:46:15;;;;;;;7.32;1.60;;;;;;;;;;5050121;28;20021;-69
2023/05/03 09:48:41;;;;;;;6.05;1.80;;;;;;;;;;5049929;28;20029;-70
2023/05/03 09:51:07;;;;;;;9.25;1.70;;;;;;;;;;5050704;28;20025;-70
2023/05/03 09:53:33;;;;;;;6.28;2.20;;;;;;;;;;5053070;28;20473;-70
2023/05/03 09:56:02;;;;;;;6.82;2.40;;;;;;;;;;5050516;28;20138;-69
2023/05/03 09:58:29;;;;;;;3.97;1.80;;;;;;;;;;5050862;28;20044;-69
2023/05/03 10:00:55;;;;;;;8.95;2.00;;;;;;;;;;5052900;28;20037;-69
2023/05/03 10:03:23;;;;;;;7.50;2.50;;;;;;;;;;5052319;28;20108;-69
2023/05/03 10:05:50;;;;;;;4.97;2.25;;;;;;;;;;5050239;28;20025;-68
2023/05/03 10:08:35;;;;;;;7.85;2.40;;;;;;;;;;5052585;28;20025;-69
2023/05/03 10:11:02;;;;;;;4.97;2.00;;;;;;;;;;5051340;28;20378;-69
2023/05/03 10:13:28;;;;;;;5.43;1.98;;;;;;;;;;5051870;28;20036;-69
2023/05/03 10:15:59;;;;;;;5.03;2.20;;;;;;;;;;5052810;28;20025;-69
2023/05/03 10:18:26;;;;;;;5.90;2.15;;;;;;;;;;5053278;28;20067;-69
2023/05/03 10:20:54;;;;;;;6.68;2.30;;;;;;;;;;5054573;28;20029;-68
2023/05/03 10:23:19;;;;;;;5.40;2.00;;;;;;;;;;5056450;28;20017;-70
2023/05/03 10:26:03;;;;;;;6.75;2.03;;;;;;;;;;5055479;28;20389;-69
2023/05/03 10:28:28;;;;;;;6.10;2.15;;;;;;;;;;5056174;28;20024;-70
2023/05/03 10:30:54;;;;;;;5.53;1.70;;;;;;;;;;5054879;28;20028;-69
2023/05/03 10:33:20;;;;;;;7.50;2.30;;;;;;;;;;5056112;28;20527;-70
2023/05/03 10:35:53;;;;;;;4.25;1.70;;;;;;;;;;5056048;28;20056;-70
2023/05/03 10:38:25;;;;;;;4.32;1.88;;;;;;;;;;5056197;28;20017;-70
2023/05/03 10:40:51;;;;;;;5.05;1.90;;;;;;;;;;5055187;28;20021;-70
2023/05/03 10:43:48;;;;;;;5.95;1.88;;;;;;;;;;5055389;28;20154;-70
2023/05/03 10:46:31;;;;;;;5.80;1.92;;;;;;;;;;5022419;28;20033;-69
2023/05/03 10:49:15;;;;;;;6.53;2.17;;;;;;;;;;5055933;28;20526;-69
2023/05/03 10:51:42;;;;;;;6.40;2.08;;;;;;;;;;5054128;28;20044;-70
2023/05/03 10:54:07;;;;;;;6.72;2.10;;;;;;;;;;5056036;28;20051;-69
2023/05/03 10:56:45;;;;;;;6.82;2.50;;;;;;;;;;5055066;28;20029;-70
2023/05/03 10:59:11;;;;;;;6.28;2.30;;;;;;;;;;5055617;28;20036;-70
2023/05/03 11:01:36;;;;;;;6.15;2.63;;;;;;;;;;5050868;28;20021;-69
2023/05/03 11:04:25;;;;;;;5.40;2.40;;;;;;;;;;5053986;28;20068;-69
2023/05/03 11:06:55;;;;;;;5.85;2.53;;;;;;;;;;5041148;28;20066;-70
2023/05/03 11:09:28;;;;;;;4.82;2.15;;;;;;;;;;5055755;28;20033;-70
2023/05/03 11:11:54;;;;;;;6.90;2.50;;;;;;;;;;5052979;28;20066;-69
2023/05/03 11:14:19;;;;;;;8.48;2.78;;;;;;;;;;5055482;28;20101;-69
2023/05/03 11:16:49;;;;;;;5.30;2.45;;;;;;;;;;5054670;28;20381;-69
2023/05/03 11:19:15;;;;;;;5.65;2.45;;;;;;;;;;5055617;28;20047;-69
2023/05/03 11:21:41;;;;;;;8.75;2.92;;;;;;;;;;5055461;28;20017;-70
2023/05/03 11:24:06;;;;;;;5.28;2.20;;;;;;;;;;5055532;28;20377;-70
2023/05/03 11:26:38;;;;;;;4.82;2.60;;;;;;;;;;5052106;28;20025;-69
2023/05/03 11:29:03;;;;;;;5.75;2.53;;;;;;;;;;5055091;28;20040;-69
2023/05/03 11:31:29;;;;;;;5.70;2.72;;;;;;;;;;5054200;28;20086;-69
2023/05/03 11:33:55;;;;;;;4.70;2.38;;;;;;;;;;5054840;28;20032;-69
2023/05/03 11:36:20;;;;;;;4.93;2.30;;;;;;;;;;5054039;28;20103;-70
2023/05/03 11:38:46;;;;;;;8.38;2.42;;;;;;;;;;5054476;28;20096;-69
2023/05/03 11:41:15;;;;;;;6.72;2.50;;;;;;;;;;5053936;28;20044;-70
2023/05/03 11:43:41;;;;;;;7.53;2.40;;;;;;;;;;5054852;28;20472;-69
2023/05/03 11:46:07;;;;;;;7.68;2.40;;;;;;;;;;5053054;28;20617;-70
2023/05/03 11:48:33;;;;;;;7.88;2.20;;;;;;;;;;5054519;28;20029;-70
2023/05/03 11:50:59;;;;;;;6.38;2.50;;;;;;;;;;5054432;28;20073;-70
2023/05/03 11:53:25;;;;;;;4.88;2.17;;;;;;;;;;5054585;28;20021;-69
2023/05/03 11:55:53;;;;;;;7.35;2.67;;;;;;;;;;5053794;28;20041;-70
2023/05/03 11:58:23;;;;;;;7.68;2.72;;;;;;;;;;5053586;28;20052;-70
2023/05/03 12:00:49;;;;;;;5.28;2.72;;;;;;;;;;5054625;28;20021;-70
2023/05/03 12:03:28;;;;;;;4.93;2.53;;;;;;;;;;5054459;28;20521;-70
2023/05/03 12:05:53;;;;;;;5.95;2.60;;;;;;;;;;5054207;28;20096;-71
2023/05/03 12:08:20;;;;;;;4.97;2.38;;;;;;;;;;5052757;28;20064;-70
2023/05/03 12:10:46;;;;;;;6.93;2.50;;;;;;;;;;5052134;28;20036;-70
2023/05/03 12:13:11;;;;;;;6.22;2.42;;;;;;;;;;5054319;28;20021;-70
2023/05/03 12:15:37;;;;;;;5.65;2.35;;;;;;;;;;5054170;28;20028;-69
2023/05/03 12:18:09;;;;;;;6.13;2.80;;;;;;;;;;5053441;28;20120;-70
2023/05/03 12:20:35;;;;;;;4.88;2.80;;;;;;;;;;5054456;28;20487;-70
2023/05/03 12:23:02;;;;;;;7.78;2.90;;;;;;;;;;5053959;28;20021;-70
2023/05/03 12:25:31;;;;;;;5.13;2.80;;;;;;;;;;5053990;28;20025;-70
2023/05/03 12:27:57;;;;;;;8.88;2.88;;;;;;;;;;5051897;28;20024;-69
2023/05/03 12:30:22;;;;;;;7.65;2.90;;;;;;;;;;5053914;28;20025;-70
2023/05/03 12:32:48;;;;;;;5.07;2.90;;;;;;;;;;5053710;28;20020;-70
2023/05/03 12:35:13;;;;;;;7.43;3.38;;;;;;;;;;5053735;28;20044;-69
2023/05/03 12:37:39;;;;;;;8.82;3.47;;;;;;;;;;5050722;28;20032;-70
2023/05/03 12:40:04;;;;;;;9.88;3.58;;;;;;;;;;5052602;28;20051;-70
2023/05/03 12:42:30;;;;;;;6.30;2.85;;;;;;;;;;5051861;28;20021;-70
2023/05/03 12:44:56;;;;;;;8.07;2.80;;;;;;;;;;5054001;28;20538;-70
2023/05/03 12:47:21;;;;;;;12.07;3.08;;;;;;;;;;5053634;28;20079;-69
2023/05/03 12:49:47;;;;;;;6.20;2.70;;;;;;;;;;5052939;28;20028;-70
2023/05/03 12:52:12;;;;;;;4.75;2.60;;;;;;;;;;5053569;28;20103;-70
2023/05/03 12:54:38;;;;;;;4.55;2.80;;;;;;;;;;5053672;28;20025;-69
2023/05/03 12:57:03;;;;;;;7.70;3.15;;;;;;;;;;5052770;28;20032;-69
2023/05/03 12:59:29;;;;;;;6.68;3.20;;;;;;;;;;5053660;28;20567;-69
2023/05/03 13:01:55;;;;;;;9.35;3.17;;;;;;;;;;5051540;28;20381;-70
2023/05/03 13:04:20;;;;;;;8.05;3.30;;;;;;;;;;5053349;28;20045;-69
2023/05/03 13:06:45;;;;;;;6.38;3.28;;;;;;;;;;5052505;28;20025;-68
2023/05/03 13:09:11;;;;;;;6.40;3.28;;;;;;;;;;5053469;28;20025;-69
2023/05/03 13:11:37;;;;;;;6.05;3.70;;;;;;;;;;5052679;28;20040;-69
2023/05/03 13:14:02;;;;;;;6.40;3.35;;;;;;;;;;5052978;28;20075;-70
2023/05/03 13:16:28;;;;;;;6.75;3.35;;;;;;;;;;5052971;28;20525;-70
2023/05/03 13:18:55;;;;;;;5.75;3.22;;;;;;;;;;5053405;28;20395;-70
2023/05/03 13:21:21;;;;;;;6.90;4.05;;;;;;;;;;5052637;28;20028;-69
2023/05/03 13:23:46;;;;;;;8.95;3.90;;;;;;;;;;5051866;28;20025;-69
2023/05/03 13:26:12;;;;;;;5.97;3.90;;;;;;;;;;5051279;28;20100;-70
2023/05/03 13:28:39;;;;;;;9.07;4.25;;;;;;;;;;5051722;28;20481;-69
2023/05/03 13:31:05;;;;;;;9.60;4.68;;;;;;;;;;5053308;28;20393;-70
2023/05/03 13:33:30;;;;;;;9.05;4.43;;;;;;;;;;5052686;28;20021;-70
2023/05/03 13:35:56;;;;;;;8.43;4.20;;;;;;;;;;5052929;28;20017;-70
2023/05/03 13:38:21;;;;;;;8.23;4.00;;;;;;;;;;5049928;28;20029;-69
2023/05/03 13:40:46;;;;;;;7.70;4.32;;;;;;;;;;5052335;28;20381;-69
2023/05/03 13:43:12;;;;;;;12.35;4.43;;;;;;;;;;5053153;28;20487;-69
2023/05/03 13:45:37;;;;;;;7.00;4.30;;;;;;;;;;5052779;28;20095;-70
2023/05/03 13:48:02;;;;;;;9.15;4.13;;;;;;;;;;5051653;28;20031;-70
2023/05/03 13:50:29;;;;;;;9.35;4.43;;;;;;;;;;5052693;28;20100;-70
2023/05/03 13:52:55;;;;;;;7.78;4.10;;;;;;;;;;5052465;28;20025;-70
2023/05/03 13:55:20;;;;;;;10.02;4.75;;;;;;;;;;5056792;28;20071;-70
2023/05/03 13:57:46;;;;;;;9.45;4.75;;;;;;;;;;5054740;28;20028;-70
2023/05/03 14:00:12;;;;;;;11.40;5.28;;;;;;;;;;5056995;28;20021;-70
2023/05/03 14:02:37;;;;;;;13.27;4.93;;;;;;;;;;5056791;28;20025;-70
2023/05/03 14:05:04;;;;;;;9.02;5.70;;;;;;;;;;5056571;28;20382;-70
2023/05/03 14:07:30;;;;;;;7.90;5.35;;;;;;;;;;5051076;28;20029;-70
2023/05/03 14:09:56;;;;;;;10.30;5.25;;;;;;;;;;5055906;28;20078;-70
2023/05/03 14:12:21;;;;;;;9.73;5.10;;;;;;;;;;5054714;28;20424;-70
2023/05/03 14:14:47;;;;;;;10.85;5.82;;;;;;;;;;5056490;28;20025;-70
2023/05/03 14:17:12;;;;;;;14.55;5.53;;;;;;;;;;5056574;28;20025;-70
2023/05/03 14:19:38;;;;;;;11.20;5.60;;;;;;;;;;5055951;28;20055;-70
2023/05/03 14:22:03;;;;;;;8.60;5.57;;;;;;;;;;5056415;28;20017;-70
2023/05/03 14:24:28;;;;;;;9.68;6.00;;;;;;;;;;5056564;28;20040;-70
2023/05/03 14:26:54;;;;;;;9.10;5.68;;;;;;;;;;5055435;28;20025;-70
2023/05/03 14:29:19;;;;;;;10.35;6.70;;;;;;;;;;5056232;28;20048;-69